Impacts METAR Board
IDs:

KLAS - Las Vegas/McCarran I, NV, US

Updated at: 0000 UTC 27 Apr 2018
Potential Impact None Slight Moderate High
Time 26/12Z 26/13Z 26/14Z 26/15Z 26/16Z 26/17Z 26/18Z 26/19Z 26/20Z 26/21Z 26/22Z 26/23Z 27/00Z
Temp71 69 72 77 80 84 88 90 91 92 93 94 94
Dewpt28 26 29 26 26 25 23 23 23 23 22 22 21
Altim29.89 29.91 29.93 29.95 29.96 29.96 29.95 29.94 29.91 29.89 29.86 29.83 29.81
VIS10 10 10 10 10 10 10 10 10 10 10 10 10
CIG-- -- -- -- -- -- -- -- 250 -- -- -- --
CoverFEWFEWFEWSCTSCTSCTSCTSCTBKNSCTSCTFEWFEW
FltCatVFRVFRVFRVFRVFRVFRVFRVFRVFRVFRVFRVFRVFR
WX--------------------------
WDir0240290013010402000000
WSpd0 3 5 0 3 8 6 6 5 4 3 0 4
WGst-- -- -- -- -- -- -- -- -- -- -- -- --
Raw hourly METARs
KLAS 261156Z 00000KT 10SM FEW200 22/M02 A2989 RMK AO2 SLP098 T02171022 10278 20211 53002
KLAS 261256Z 24003KT 10SM FEW200 21/M03 A2991 RMK AO2 SLP104 T02061033
KLAS 261356Z 29005KT 10SM FEW180 FEW250 22/M02 A2993 RMK AO2 SLP111 T02221017
KLAS 261456Z 00000KT 10SM FEW180 SCT250 25/M03 A2995 RMK AO2 SLP117 T02501033 53018
KLAS 261556Z 13003KT 10SM FEW180 SCT250 27/M03 A2996 RMK AO2 SLP119 T02671033
KLAS 261656Z 01008KT 10SM FEW180 SCT250 29/M04 A2996 RMK AO2 SLP118 T02891039
KLAS 261756Z 04006KT 10SM FEW180 SCT250 31/M05 A2995 RMK AO2 SLP116 T03111050 10311 20206 50001
KLAS 261856Z 02006KT 10SM FEW180 SCT250 32/M05 A2994 RMK AO2 SLP111 T03221050
KLAS 261956Z VRB05KT 10SM FEW180 BKN250 33/M05 A2991 RMK AO2 SLP103 T03281050
KLAS 262056Z VRB04KT 10SM FEW140 SCT250 33/M05 A2989 RMK AO2 SLP095 T03331050 58021
KLAS 262156Z VRB03KT 10SM FEW140 SCT250 34/M06 A2986 RMK AO2 SLP086 T03391056
KLAS 262256Z 00000KT 10SM FEW140 FEW250 34/M06 A2983 RMK AO2 SLP076 T03441056
KLAS 262356Z VRB04KT 10SM FEW140 FEW250 34/M06 A2981 RMK AO2 SLP070 T03441061 10356 20306 56024



Page loaded:  00:48 UTC  |   05:48 PM Pacific  |   06:48 PM Mountain  |   07:48 PM Central  |   08:48 PM Eastern

 

ADVISORIES

FORECASTS

FORECASTS

OBSERVATIONS

USER TOOLS

ABOUT US